Terminal Aerodrome Forecast
Issued by NWS Paducah, KY

Home | Current Version | Previous Version | Text Only | Print | Product List | Glossary On
Versions: 1 2 3 4 5 6 7 8 9 10 11 12 13 14 15 16 17 18 19
130
FTUS43 KPAH 141720
TAFEVV
TAF
KEVV 141720Z 1418/1518 17004KT P6SM FEW030 SCT250
     FM150300 20003KT P6SM BKN035
     FM150900 00000KT 4SM BR SCT040
     FM151300 23006KT P6SM SCT040=

USA.gov is the U.S. government's official web portal to all federal, state and local government web resources and services.